Time;durP1;ratioP1;P1;durP2;ratioP2;P2;SDS_P1;SDS_P2;PMS_P1;PMS_P2;Temp;Humidity;BMP_temperature;BMP_pressure;BME280_temperature;BME280_humidity;BME280_pressure;Samples;Min_cycle;Max_cycle;Signal;HPM_P1;HPM_P2
2023/10/13 00:02:11;;;;;;;40.10;18.30;;;;;;;11.03;100.00;100715.30;110815;1211;140691;-65
2023/10/13 00:04:36;;;;;;;40.40;17.80;;;;;;;11.02;100.00;100714.06;110912;1208;97723;-65
2023/10/13 00:07:03;;;;;;;31.70;17.30;;;;;;;11.04;100.00;100717.01;111003;1206;97644;-64
2023/10/13 00:09:32;;;;;;;31.10;17.40;;;;;;;11.04;100.00;100722.73;110860;1210;138864;-65
2023/10/13 00:11:58;;;;;;;38.50;16.70;;;;;;;11.03;100.00;100721.73;111080;1205;107423;-65
2023/10/13 00:14:33;;;;;;;45.20;16.60;;;;;;;11.07;100.00;100724.96;110803;1209;139858;-65
2023/10/13 00:17:07;;;;;;;36.30;16.90;;;;;;;11.10;100.00;100733.04;111013;1209;97597;-65
2023/10/13 00:19:38;;;;;;;36.70;16.50;;;;;;;11.14;100.00;100735.55;111034;1209;111660;-65
2023/10/13 00:22:09;;;;;;;33.40;16.90;;;;;;;11.15;100.00;100734.08;110949;1206;140551;-65
2023/10/13 00:24:51;;;;;;;44.20;17.20;;;;;;;11.16;100.00;100733.16;111081;1206;107104;-65
2023/10/13 00:30:14;;;;;;;39.00;15.60;;;;;;;11.21;100.00;100729.14;110991;1209;97898;-65
2023/10/13 00:32:42;;;;;;;30.80;15.00;;;;;;;11.26;100.00;100726.60;110925;1206;140187;-66
2023/10/13 00:35:11;;;;;;;33.20;14.60;;;;;;;11.28;100.00;100728.63;111070;1206;102335;-65
2023/10/13 00:37:42;;;;;;;28.00;14.00;;;;;;;11.32;100.00;100730.60;111062;1209;107819;-65
2023/10/13 00:40:18;;;;;;;33.70;14.00;;;;;;;11.36;100.00;100731.48;110840;1208;138920;-65
2023/10/13 00:42:52;;;;;;;24.20;13.50;;;;;;;11.39;100.00;100730.13;110984;1206;99143;-65
2023/10/13 00:45:18;;;;;;;26.50;13.60;;;;;;;11.34;100.00;100727.48;110912;1209;140204;-65
2023/10/13 00:47:56;;;;;;;37.40;13.90;;;;;;;11.28;100.00;100732.75;111026;1206;97546;-65
2023/10/13 00:50:23;;;;;;;40.70;14.50;;;;;;;11.28;100.00;100728.13;110861;1206;140010;-65
2023/10/13 00:52:50;;;;;;;31.60;14.30;;;;;;;11.25;100.00;100722.91;110970;1224;97648;-65
2023/10/13 00:55:18;;;;;;;31.50;14.90;;;;;;;11.25;100.00;100723.27;110982;1210;97716;-65
2023/10/13 00:57:46;;;;;;;30.00;14.70;;;;;;;11.26;100.00;100720.68;110860;1205;138981;-65
2023/10/13 01:00:25;;;;;;;28.90;14.70;;;;;;;11.25;100.00;100719.65;110933;1206;102097;-65
2023/10/13 01:02:56;;;;;;;40.40;16.10;;;;;;;11.25;100.00;100715.75;110818;1209;139615;-65
2023/10/13 01:05:25;;;;;;;34.20;16.10;;;;;;;11.24;100.00;100716.13;110957;1209;97665;-65
2023/10/13 01:07:54;;;;;;;33.90;16.00;;;;;;;11.22;100.00;100711.76;111000;1209;140011;-65
2023/10/13 01:10:20;;;;;;;35.70;15.80;;;;;;;11.22;100.00;100702.25;111150;1209;113677;-65
2023/10/13 01:12:47;;;;;;;32.30;16.60;;;;;;;11.26;100.00;100695.30;111014;1206;97642;-65
2023/10/13 01:15:16;;;;;;;34.70;17.10;;;;;;;11.30;100.00;100696.73;110861;1209;140432;-65
2023/10/13 01:17:46;;;;;;;40.60;17.70;;;;;;;11.32;100.00;100693.76;111006;1210;97706;-65
2023/10/13 01:20:18;;;;;;;37.80;16.30;;;;;;;11.34;100.00;100692.08;110897;1209;140136;-65
2023/10/13 01:22:43;;;;;;;36.60;16.40;;;;;;;11.35;100.00;100693.80;110952;1209;111578;-65
2023/10/13 01:25:12;;;;;;;37.60;17.00;;;;;;;11.35;100.00;100691.65;111024;1206;97611;-65
2023/10/13 01:27:38;;;;;;;36.10;16.00;;;;;;;11.37;100.00;100690.67;110905;1209;138832;-65
2023/10/13 01:30:22;;;;;;;35.80;16.10;;;;;;;11.37;100.00;100689.42;110984;1209;97601;-65
2023/10/13 01:32:51;;;;;;;35.70;16.30;;;;;;;11.36;100.00;100683.54;110929;1206;139933;-65
2023/10/13 01:35:27;;;;;;;27.60;15.00;;;;;;;11.36;100.00;100679.98;111040;1225;111153;-65
2023/10/13 01:37:52;;;;;;;27.60;13.30;;;;;;;11.37;100.00;100679.23;110834;1206;140865;-64
2023/10/13 01:40:20;;;;;;;32.80;16.30;;;;;;;11.36;100.00;100683.20;111001;1206;97778;-65
2023/10/13 01:42:46;;;;;;;34.20;13.80;;;;;;;11.38;100.00;100678.80;110991;1208;97730;-65
2023/10/13 01:45:14;;;;;;;30.30;13.30;;;;;;;11.42;100.00;100673.10;110980;1206;140072;-65
2023/10/13 01:47:39;;;;;;;31.20;14.20;;;;;;;11.46;100.00;100669.33;111056;1209;99834;-65
2023/10/13 01:50:20;;;;;;;34.80;14.20;;;;;;;11.50;100.00;100667.00;111232;1206;141043;-65
2023/10/13 01:52:46;;;;;;;;;;;;;;;11.49;100.00;100677.06;111034;1212;97678;-65
2023/10/13 01:55:17;;;;;;;32.00;14.10;;;;;;;11.40;100.00;100691.06;111037;1208;97731;-64
2023/10/13 01:57:47;;;;;;;33.30;15.70;;;;;;;11.33;100.00;100698.16;110942;1209;138829;-65
2023/10/13 02:00:20;;;;;;;37.40;15.50;;;;;;;11.34;100.00;100689.04;111065;1206;100085;-65
2023/10/13 02:02:49;;;;;;;33.90;14.80;;;;;;;11.33;100.00;100688.68;110921;1210;140473;-65
2023/10/13 02:05:17;;;;;;;32.30;15.40;;;;;;;11.35;100.00;100687.36;111063;1221;97720;-65
2023/10/13 02:07:45;;;;;;;31.50;15.30;;;;;;;11.37;100.00;100686.71;110993;1209;97617;-65
2023/10/13 02:10:13;;;;;;;30.90;15.10;;;;;;;11.41;100.00;100694.08;110947;1206;111798;-65
2023/10/13 02:12:45;;;;;;;33.10;14.50;;;;;;;11.42;100.00;100699.41;111014;1209;99828;-65
2023/10/13 02:15:21;;;;;;;26.30;13.90;;;;;;;11.45;100.00;100701.39;110887;1206;138930;-65
2023/10/13 02:17:51;;;;;;;42.70;13.30;;;;;;;11.49;100.00;100708.02;111015;1206;97578;-65
2023/10/13 02:20:23;;;;;;;31.00;13.30;;;;;;;11.47;100.00;100700.93;110845;1206;139273;-65
2023/10/13 02:22:49;;;;;;;31.90;12.90;;;;;;;11.46;100.00;100696.87;111146;1206;111123;-66
2023/10/13 02:25:35;;;;;;;25.60;12.80;;;;;;;11.47;100.00;100691.48;111049;1205;97735;-64
2023/10/13 02:28:02;;;;;;;20.90;12.40;;;;;;;11.50;100.00;100682.73;110811;1206;138922;-65
2023/10/13 02:30:27;;;;;;;28.60;12.30;;;;;;;11.54;100.00;100684.87;111264;1212;97943;-64
2023/10/13 02:32:55;;;;;;;29.20;12.70;;;;;;;11.60;100.00;100701.61;111020;1205;138966;-64
2023/10/13 02:35:29;;;;;;;26.70;12.00;;;;;;;11.58;100.00;100707.06;111005;1208;100247;-64
2023/10/13 02:37:56;;;;;;;38.10;14.00;;;;;;;11.58;100.00;100706.15;110931;1206;141363;-64
2023/10/13 02:40:23;;;;;;;27.40;12.10;;;;;;;11.56;100.00;100706.26;110960;1211;99321;-64
2023/10/13 02:42:48;;;;;;;31.90;12.30;;;;;;;11.56;100.00;100704.45;111060;1206;97587;-64
2023/10/13 02:45:14;;;;;;;25.50;12.30;;;;;;;11.55;100.00;100707.92;110915;1206;139902;-64
2023/10/13 02:47:43;;;;;;;22.90;11.70;;;;;;;11.53;100.00;100710.51;111030;1209;107894;-64
2023/10/13 02:50:12;;;;;;;27.70;11.30;;;;;;;11.51;100.00;100704.88;110890;1210;140293;-64
2023/10/13 02:52:41;;;;;;;22.40;12.20;;;;;;;11.52;100.00;100695.52;111000;1206;98120;-66
2023/10/13 02:55:10;;;;;;;28.50;13.40;;;;;;;11.53;100.00;100687.25;111058;1208;111634;-66
2023/10/13 02:57:36;;;;;;;26.20;11.80;;;;;;;11.56;100.00;100682.61;110911;1206;140021;-66
2023/10/13 03:00:12;;;;;;;23.40;11.70;;;;;;;11.60;100.00;100685.30;110910;1209;97611;-64
2023/10/13 03:02:44;;;;;;;29.20;12.60;;;;;;;11.66;100.00;100679.66;110929;1206;140667;-64
2023/10/13 03:05:13;;;;;;;30.50;11.90;;;;;;;11.71;100.00;100679.05;110990;1209;97814;-64
2023/10/13 03:07:42;;;;;;;28.90;12.70;;;;;;;11.76;100.00;100678.64;111020;1206;110669;-64
2023/10/13 03:10:12;;;;;;;26.60;13.40;;;;;;;11.79;100.00;100680.86;110935;1206;139583;-64
2023/10/13 03:12:39;;;;;;;30.00;13.60;;;;;;;11.81;100.00;100679.70;110931;1205;107996;-64
2023/10/13 03:15:19;;;;;;;35.80;13.30;;;;;;;11.84;100.00;100684.56;110885;1209;138937;-64
2023/10/13 03:17:46;;;;;;;27.90;12.80;;;;;;;11.84;100.00;100681.70;111038;1206;97013;-64
2023/10/13 03:20:14;;;;;;;30.30;13.90;;;;;;;11.80;100.00;100675.09;110869;1208;139579;-64
2023/10/13 03:22:39;;;;;;;27.70;12.80;;;;;;;11.77;100.00;100679.17;110980;1206;97591;-64
2023/10/13 03:25:07;;;;;;;33.10;13.50;;;;;;;11.76;100.00;100680.63;110866;1206;97623;-64
2023/10/13 03:30:17;;;;;;;28.10;12.10;;;;;;;11.73;100.00;100686.14;110912;1206;96555;-64
2023/10/13 03:32:54;;;;;;;24.20;12.20;;;;;;;11.73;100.00;100684.69;110857;1210;139193;-64
2023/10/13 03:35:31;;;;;;;24.30;11.90;;;;;;;11.78;100.00;100683.07;110927;1209;100473;-64
2023/10/13 03:37:56;;;;;;;32.10;12.00;;;;;;;11.81;100.00;100684.71;110876;1209;139153;-64
2023/10/13 03:43:10;;;;;;;30.00;11.80;;;;;;;11.85;100.00;100678.77;111125;1209;98023;-64
2023/10/13 03:45:38;;;;;;;23.40;10.20;;;;;;;11.87;100.00;100677.60;110891;1206;138800;-64
2023/10/13 03:48:28;;;;;;;24.60;10.40;;;;;;;11.86;100.00;100673.54;111076;1206;107909;-64
2023/10/13 03:51:06;;;;;;;25.60;10.10;;;;;;;11.89;100.00;100676.64;110939;1208;138938;-64
2023/10/13 03:53:50;;;;;;;24.80;10.60;;;;;;;11.88;100.00;100674.13;110988;1210;97649;-64
2023/10/13 03:56:15;;;;;;;22.80;9.70;;;;;;;11.91;100.00;100673.11;110883;1209;139008;-64
2023/10/13 03:58:48;;;;;;;31.10;9.70;;;;;;;11.92;100.00;100673.41;111056;1206;98061;-64
2023/10/13 04:01:17;;;;;;;19.20;9.30;;;;;;;11.93;100.00;100670.35;111036;1206;108055;-64
2023/10/13 04:03:56;;;;;;;19.90;8.70;;;;;;;11.96;100.00;100668.02;110953;1225;141352;-64
2023/10/13 04:06:47;;;;;;;26.00;10.00;;;;;;;11.99;100.00;100666.11;111020;1205;98017;-64
2023/10/13 04:12:18;;;;;;;21.50;9.80;;;;;;;11.95;100.00;100651.81;111054;1206;98009;-64
2023/10/13 04:17:14;;;;;;;25.50;10.60;;;;;;;11.97;100.00;100650.79;110986;1208;98025;-64
2023/10/13 04:20:46;;;;;;;16.50;8.30;;;;;;;12.00;100.00;100650.65;111014;1209;98129;-64
2023/10/13 04:28:15;;;;;;;22.40;11.30;;;;;;;12.05;100.00;100641.46;110879;1205;140394;-64
2023/10/13 04:39:00;;;;;;;25.00;12.60;;;;;;;11.99;100.00;100628.66;110875;1210;140198;-64
2023/10/13 04:41:42;;;;;;;40.00;13.00;;;;;;;11.99;100.00;100630.84;111051;1206;107949;-64
2023/10/13 04:47:07;;;;;;;23.80;12.50;;;;;;;11.97;100.00;100623.73;110856;1206;97976;-64
2023/10/13 04:57:34;;;;;;;35.50;12.90;;;;;;;12.05;100.00;100612.27;110808;1210;139374;-65
2023/10/13 06:29:55;;;;;;;47.20;18.40;;;;;;;12.40;100.00;100636.10;110950;1209;106136;-66
2023/10/13 06:32:25;;;;;;;46.40;17.50;;;;;;;12.42;100.00;100633.13;110867;1209;139088;-66
2023/10/13 06:34:57;;;;;;;50.90;18.00;;;;;;;12.46;100.00;100632.05;111009;1208;97706;-66
2023/10/13 06:37:33;;;;;;;44.20;17.20;;;;;;;12.49;100.00;100638.52;110914;1209;111592;-65
2023/10/13 06:40:22;;;;;;;49.70;19.50;;;;;;;12.48;100.00;100635.67;110858;1210;139983;-66
2023/10/13 06:42:48;;;;;;;58.30;18.70;;;;;;;12.50;100.00;100632.02;110928;1207;108243;-66
2023/10/13 06:45:16;;;;;;;49.60;18.20;;;;;;;12.53;100.00;100635.23;110896;1209;139016;-66
2023/10/13 06:47:45;;;;;;;41.20;18.30;;;;;;;12.58;100.00;100634.61;110993;1209;97578;-66
2023/10/13 06:50:15;;;;;;;45.50;17.20;;;;;;;12.59;100.00;100630.09;110954;1206;139726;-66
2023/10/13 06:52:45;;;;;;;48.10;18.00;;;;;;;12.60;100.00;100634.14;111074;1210;99972;-66
2023/10/13 06:55:27;;;;;;;48.30;18.60;;;;;;;12.61;100.00;100636.95;111040;1206;108080;-66
2023/10/13 06:57:59;;;;;;;38.90;16.20;;;;;;;12.63;100.00;100634.53;110956;1212;139809;-66
2023/10/13 07:00:29;;;;;;;46.40;18.30;;;;;;;12.63;100.00;100632.55;111021;1212;97671;-66
2023/10/13 07:03:05;;;;;;;56.60;19.00;;;;;;;12.64;100.00;100631.95;110956;1206;138970;-66
2023/10/13 07:05:34;;;;;;;46.40;17.00;;;;;;;12.65;100.00;100630.48;111121;1206;98633;-66
2023/10/13 07:08:04;;;;;;;50.50;18.30;;;;;;;12.69;100.00;100626.71;110976;1205;141151;-66
2023/10/13 07:10:30;;;;;;;57.00;19.90;;;;;;;12.74;100.00;100631.30;111241;1206;97596;-66
2023/10/13 07:13:00;;;;;;;43.90;17.90;;;;;;;12.79;100.00;100628.72;111035;1209;97835;-66
2023/10/13 07:15:27;;;;;;;41.60;17.10;;;;;;;12.82;100.00;100626.02;110919;1211;138980;-66
2023/10/13 07:17:59;;;;;;;53.20;18.00;;;;;;;12.83;100.00;100631.54;111141;1206;97594;-66
2023/10/13 07:20:34;;;;;;;52.60;17.90;;;;;;;12.85;100.00;100633.05;110886;1206;139338;-66
2023/10/13 07:23:11;;;;;;;44.30;17.70;;;;;;;12.92;100.00;100631.21;110971;1222;97565;-66
2023/10/13 07:25:38;;;;;;;51.80;17.70;;;;;;;13.00;100.00;100630.41;111011;1206;97725;-66
2023/10/13 07:28:04;;;;;;;44.30;18.10;;;;;;;13.06;100.00;100631.88;110862;1205;139723;-66
2023/10/13 07:30:42;;;;;;;46.10;18.30;;;;;;;13.12;100.00;100625.10;111131;1206;97681;-66
2023/10/13 07:33:10;;;;;;;53.30;19.10;;;;;;;13.15;100.00;100615.23;110866;1206;139451;-66
2023/10/13 07:35:37;;;;;;;46.90;17.40;;;;;;;13.21;100.00;100607.75;111042;1206;97690;-66
2023/10/13 07:38:07;;;;;;;58.20;18.60;;;;;;;13.26;100.00;100602.96;110917;1206;140889;-66
2023/10/13 07:43:01;;;;;;;45.40;18.00;;;;;;;13.42;100.00;100605.38;111004;1206;99469;-66
2023/10/13 07:45:36;;;;;;;39.50;18.80;;;;;;;13.47;100.00;100605.23;110889;1206;139340;-66
2023/10/13 07:48:07;;;;;;;48.60;17.50;;;;;;;13.50;100.00;100611.36;111092;1209;97690;-65
2023/10/13 07:50:34;;;;;;;58.50;19.80;;;;;;;13.53;100.00;100611.17;110965;1206;140406;-65
2023/10/13 07:53:04;;;;;;;45.60;17.90;;;;;;;13.56;100.00;100605.45;111007;1212;97680;-66
2023/10/13 07:55:33;;;;;;;36.50;17.50;;;;;;;13.59;100.00;100602.39;111074;1206;99857;-65
2023/10/13 07:58:07;;;;;;;59.30;17.40;;;;;;;13.63;100.00;100600.37;111014;1222;139792;-66
2023/10/13 08:05:55;;;;;;;52.00;19.50;;;;;;;13.74;100.00;100583.61;111100;1206;111071;-65
2023/10/13 08:08:21;;;;;;;;;;;;;;;13.78;100.00;100591.25;110826;1209;140572;-65
2023/10/13 08:10:47;;;;;;;52.40;19.20;;;;;;;13.79;100.00;100577.89;110955;1206;97578;-65
2023/10/13 08:13:12;;;;;;;54.40;20.20;;;;;;;13.81;100.00;100572.23;111004;1206;97636;-66
2023/10/13 08:15:52;;;;;;;47.20;21.00;;;;;;;13.81;100.00;100570.45;110311;1206;139367;-65
2023/10/13 08:18:29;;;;;;;46.10;19.90;;;;;;;13.84;100.00;100565.42;110547;1210;99987;-65
2023/10/13 08:21:02;;;;;;;42.60;18.60;;;;;;;13.86;100.00;100561.52;110775;1210;140504;-67
2023/10/13 08:23:57;;;;;;;48.70;19.50;;;;;;;13.89;100.00;100560.08;110905;1206;97729;-66
2023/10/13 08:26:29;;;;;;;50.30;20.40;;;;;;;13.93;100.00;100568.48;110676;1210;141138;-66
2023/10/13 08:28:55;;;;;;;42.60;20.40;;;;;;;14.01;100.00;100561.70;110801;1211;111639;-68
2023/10/13 08:31:25;;;;;;;47.40;21.80;;;;;;;14.01;100.00;100558.15;110873;1211;97568;-68
2023/10/13 08:33:57;;;;;;;50.00;21.30;;;;;;;14.03;100.00;100559.85;110859;1206;139375;-65
2023/10/13 08:36:30;;;;;;;44.30;19.50;;;;;;;14.08;100.00;100560.41;110955;1206;97566;-65
2023/10/13 08:38:56;;;;;;;46.50;20.20;;;;;;;14.17;100.00;100554.12;110721;1211;139416;-64
2023/10/13 08:43:50;;;;;;;47.50;20.10;;;;;;;14.28;100.00;100552.52;110872;1206;97701;-64
2023/10/13 08:46:29;;;;;;;44.70;20.40;;;;;;;14.39;100.00;100554.57;110719;1206;138554;-64
2023/10/13 08:51:45;;;;;;;41.80;18.60;;;;;;;14.57;100.00;100550.10;110773;1205;139435;-65
2023/10/13 08:57:05;;;;;;;44.60;20.60;;;;;;;14.78;100.00;100551.13;110721;1211;139278;-68
2023/10/13 08:59:38;;;;;;;40.40;19.80;;;;;;;14.88;100.00;100549.23;110849;1209;108423;-64
2023/10/13 09:02:17;;;;;;;41.30;19.30;;;;;;;14.98;100.00;100541.21;110522;1208;139855;-65
2023/10/13 09:04:46;;;;;;;38.20;18.60;;;;;;;15.10;100.00;100537.73;110758;1212;97697;-65
2023/10/13 09:07:25;;;;;;;40.00;20.40;;;;;;;15.18;100.00;100534.03;110782;1211;111594;-65
2023/10/13 09:15:17;;;;;;;35.40;18.20;;;;;;;15.56;100.00;100532.27;110847;1221;138948;-66
2023/10/13 09:17:53;;;;;;;42.10;18.50;;;;;;;15.63;100.00;100532.51;110957;1206;97952;-65
2023/10/13 09:23:23;;;;;;;35.40;17.80;;;;;;;15.75;100.00;100531.34;110946;1210;99869;-66
2023/10/13 09:25:58;;;;;;;43.10;18.80;;;;;;;15.83;100.00;100534.04;110868;1211;99090;-66
2023/10/13 09:28:28;;;;;;;67.60;35.10;;;;;;;15.94;100.00;100527.59;110578;1210;97706;-65
2023/10/13 09:30:57;;;;;;;75.90;43.80;;;;;;;16.07;100.00;100517.65;110795;1208;97910;-65
2023/10/13 09:33:35;;;;;;;45.90;25.20;;;;;;;16.16;100.00;100514.20;110888;1205;139483;-65
2023/10/13 09:36:04;;;;;;;30.20;15.60;;;;;;;16.25;100.00;100502.55;110858;1211;98331;-65
2023/10/13 09:38:32;;;;;;;32.20;17.20;;;;;;;16.36;100.00;100501.56;110805;1206;139667;-65
2023/10/13 09:41:01;;;;;;;33.70;15.50;;;;;;;16.45;100.00;100504.73;110765;1206;97576;-65
2023/10/13 09:43:28;;;;;;;30.60;15.70;;;;;;;16.56;100.00;100507.74;110866;1209;98320;-65
2023/10/13 09:46:07;;;;;;;39.40;16.80;;;;;;;16.70;100.00;100507.53;110864;1208;139447;-65
2023/10/13 09:48:41;;;;;;;25.80;13.70;;;;;;;16.81;100.00;100502.53;110754;1206;97622;-65
2023/10/13 09:51:21;;;;;;;30.10;15.30;;;;;;;16.89;100.00;100489.54;110653;1211;139285;-65
2023/10/13 09:54:06;;;;;;;25.40;12.90;;;;;;;16.97;100.00;100484.83;110798;1206;97610;-65
2023/10/13 09:56:55;;;;;;;25.50;14.70;;;;;;;17.03;100.00;100478.59;110779;1221;138968;-65
2023/10/13 09:59:36;;;;;;;25.90;13.80;;;;;;;17.12;100.00;100469.30;110789;1209;103246;-65
2023/10/13 10:02:18;;;;;;;24.80;12.90;;;;;;;17.23;100.00;100463.94;110814;1205;140977;-65
2023/10/13 10:04:55;;;;;;;17.20;11.80;;;;;;;17.36;100.00;100460.13;110986;1208;99337;-64
2023/10/13 10:07:28;;;;;;;19.50;11.60;;;;;;;17.44;100.00;100450.86;111126;1210;97726;-65
2023/10/13 10:10:01;;;;;;;17.30;10.80;;;;;;;17.53;100.00;100450.32;110895;1205;140405;-64
2023/10/13 10:12:34;;;;;;;24.40;12.10;;;;;;;17.66;100.00;100443.58;110971;1208;102125;-65
2023/10/13 10:15:35;;;;;;;23.50;11.20;;;;;;;17.77;100.00;100436.98;110851;1210;139803;-65
2023/10/13 10:18:02;;;;;;;18.00;10.30;;;;;;;17.89;100.00;100431.36;110987;1206;99293;-65
2023/10/13 10:20:43;;;;;;;19.80;10.20;;;;;;;17.97;100.00;100427.46;110902;1209;139407;-64
2023/10/13 10:23:21;;;;;;;22.70;9.00;;;;;;;18.11;100.00;100428.48;110781;1210;96451;-65
2023/10/13 10:25:48;;;;;;;14.70;7.90;;;;;;;18.21;100.00;100429.86;110862;1209;102814;-64
2023/10/13 10:28:15;;;;;;;16.70;8.40;;;;;;;18.32;100.00;100422.49;110669;1206;138979;-65
2023/10/13 10:30:42;;;;;;;15.20;7.50;;;;;;;18.45;100.00;100421.63;110956;1209;97702;-65
2023/10/13 10:33:21;;;;;;;15.60;8.10;;;;;;;18.57;100.00;100418.31;110979;1206;139742;-65
2023/10/13 10:35:47;;;;;;;15.00;7.90;;;;;;;18.70;100.00;100411.89;110943;1206;97566;-65
2023/10/13 10:41:05;;;;;;;13.30;6.70;;;;;;;18.93;100.00;100396.25;110940;1209;97594;-65
2023/10/13 10:43:43;;;;;;;14.90;6.50;;;;;;;19.07;100.00;100394.89;110752;1212;100667;-65
2023/10/13 10:46:11;;;;;;;16.60;5.70;;;;;;;19.17;100.00;100395.16;110698;1211;141245;-64
2023/10/13 10:48:46;;;;;;;7.90;4.90;;;;;;;19.21;100.00;100393.03;110924;1211;97769;-64
2023/10/13 10:51:22;;;;;;;15.00;5.20;;;;;;;19.23;100.00;100392.13;110841;1210;138585;-64
2023/10/13 10:53:53;;;;;;;12.90;6.10;;;;;;;19.24;100.00;100392.73;110998;1206;97642;-63
2023/10/13 10:56:24;;;;;;;9.10;5.60;;;;;;;19.23;99.81;100386.35;110804;1208;139432;-65
2023/10/13 10:58:57;;;;;;;13.50;6.20;;;;;;;19.22;99.66;100388.05;110989;1209;97747;-65
2023/10/13 11:01:24;;;;;;;11.10;5.60;;;;;;;19.20;99.31;100381.17;110735;1212;99103;-65
2023/10/13 11:04:14;;;;;;;10.70;5.50;;;;;;;19.21;98.96;100380.13;110819;1211;138463;-65
2023/10/13 11:06:45;;;;;;;12.40;5.80;;;;;;;19.20;98.24;100383.50;110969;1211;98956;-63
2023/10/13 11:11:52;;;;;;;14.10;5.50;;;;;;;19.21;97.68;100378.16;110922;1222;98668;-63
2023/10/13 11:14:25;;;;;;;11.60;5.50;;;;;;;19.28;97.29;100374.80;110700;1212;139243;-63
2023/10/13 11:16:53;;;;;;;16.30;6.20;;;;;;;19.31;96.62;100369.13;110883;1206;103283;-64
2023/10/13 11:19:34;;;;;;;8.80;4.70;;;;;;;19.32;96.82;100369.37;111115;1209;97636;-64
2023/10/13 11:22:10;;;;;;;7.70;5.00;;;;;;;19.34;96.45;100365.23;110819;1211;139429;-63
2023/10/13 11:24:44;;;;;;;9.20;5.80;;;;;;;19.35;96.01;100360.48;110871;1212;97715;-64
2023/10/13 11:27:37;;;;;;;12.60;5.40;;;;;;;19.35;95.71;100354.48;110663;1211;138441;-65
2023/10/13 11:30:12;;;;;;;10.50;4.80;;;;;;;19.31;94.45;100349.94;110835;1212;103312;-64
2023/10/13 11:32:41;;;;;;;8.50;5.10;;;;;;;19.29;95.11;100348.09;110796;1207;139007;-64
2023/10/13 11:35:20;;;;;;;12.90;5.70;;;;;;;19.28;94.77;100341.67;110871;1210;99730;-65
2023/10/13 11:37:56;;;;;;;11.50;5.60;;;;;;;19.25;94.73;100339.06;110883;1206;97650;-65
2023/10/13 11:40:43;;;;;;;11.30;6.80;;;;;;;19.24;94.82;100331.70;110815;1205;138262;-65
2023/10/13 11:43:14;;;;;;;14.40;6.00;;;;;;;19.28;94.84;100328.80;110920;1222;103478;-65
2023/10/13 11:46:12;;;;;;;14.00;5.90;;;;;;;19.32;94.92;100323.77;110906;1212;138688;-65
2023/10/13 11:48:41;;;;;;;12.90;5.90;;;;;;;19.33;94.60;100317.56;110895;1209;99638;-65
2023/10/13 11:51:17;;;;;;;13.00;6.30;;;;;;;19.32;93.93;100318.18;110757;1209;138964;-65
2023/10/13 11:53:45;;;;;;;9.50;6.00;;;;;;;19.32;94.14;100310.75;110911;1208;97619;-65
2023/10/13 11:56:10;;;;;;;12.60;5.60;;;;;;;19.35;93.80;100307.05;110795;1211;140357;-64
2023/10/13 11:58:36;;;;;;;12.70;6.10;;;;;;;19.36;93.95;100298.95;110912;1212;97801;-65
2023/10/13 12:11:47;;;;;;;7.80;5.30;;;;;;;19.46;93.46;100286.12;110909;1211;99354;-65
2023/10/13 12:14:27;;;;;;;14.20;5.80;;;;;;;19.50;93.45;100284.36;110820;1211;138404;-64
2023/10/13 12:16:53;;;;;;;8.50;5.30;;;;;;;19.53;93.49;100282.14;110953;1209;97648;-66
2023/10/13 12:19:26;;;;;;;9.10;4.70;;;;;;;19.56;93.52;100281.66;110886;1209;97721;-66
2023/10/13 12:21:56;;;;;;;9.30;5.40;;;;;;;19.62;93.47;100278.05;110801;1211;140131;-66
2023/10/13 12:24:39;;;;;;;12.00;5.70;;;;;;;19.64;93.11;100273.19;111008;1206;99048;-67
2023/10/13 12:30:07;;;;;;;39.70;27.40;;;;;;;19.59;92.71;100265.98;110819;1212;97813;-64
2023/10/13 12:32:34;;;;;;;7.20;5.20;;;;;;;19.57;92.53;100262.37;110726;1210;139530;-65
2023/10/13 12:51:19;;;;;;;14.40;5.10;;;;;;;19.47;91.49;100249.61;110770;1210;139244;-64
2023/10/13 12:53:47;;;;;;;10.10;5.20;;;;;;;19.44;91.38;100248.11;110980;1211;97587;-64
2023/10/13 12:56:13;;;;;;;10.50;5.40;;;;;;;19.41;91.17;100248.52;110975;1212;139810;-63
2023/10/13 12:58:38;;;;;;;12.60;5.40;;;;;;;19.41;91.07;100246.86;111004;1206;97776;-63
2023/10/13 13:01:06;;;;;;;10.70;5.30;;;;;;;19.41;90.92;100236.89;110922;1206;97783;-64
2023/10/13 13:03:32;;;;;;;11.00;5.20;;;;;;;19.42;90.95;100233.58;110841;1218;138628;-63
2023/10/13 13:05:58;;;;;;;12.20;5.20;;;;;;;19.44;90.89;100220.88;111002;1208;98249;-64
2023/10/13 13:08:24;;;;;;;9.70;5.20;;;;;;;19.45;90.76;100222.23;110789;1206;139095;-64
2023/10/13 13:10:50;;;;;;;13.80;6.30;;;;;;;19.47;90.49;100222.66;110956;1212;97678;-64
2023/10/13 13:13:16;;;;;;;11.70;5.50;;;;;;;19.45;90.09;100221.52;111194;1212;97651;-64
2023/10/13 13:15:42;;;;;;;10.30;5.30;;;;;;;19.42;89.55;100219.59;110884;1206;139470;-64
2023/10/13 13:18:11;;;;;;;9.60;5.30;;;;;;;19.42;89.18;100215.42;110920;1208;97686;-64
2023/10/13 13:20:39;;;;;;;8.00;5.60;;;;;;;19.44;89.28;100213.31;110854;1209;139463;-63
2023/10/13 13:23:05;;;;;;;10.90;5.60;;;;;;;19.42;88.96;100211.42;110815;1206;97571;-63
2023/10/13 13:25:31;;;;;;;10.00;5.10;;;;;;;19.41;88.92;100211.23;110999;1223;98148;-64
2023/10/13 13:27:57;;;;;;;11.90;5.00;;;;;;;19.39;88.70;100205.91;110874;1209;140800;-63
2023/10/13 13:30:30;;;;;;;10.00;5.30;;;;;;;19.41;88.67;100199.22;111093;1212;99450;-63
2023/10/13 13:32:56;;;;;;;8.80;5.40;;;;;;;19.46;88.67;100194.41;110796;1212;139374;-64
2023/10/13 13:35:21;;;;;;;11.50;5.50;;;;;;;19.54;88.74;100184.75;110981;1208;100100;-64
2023/10/13 13:37:46;;;;;;;10.00;5.90;;;;;;;19.61;88.73;100177.42;110980;1206;97029;-64
2023/10/13 13:40:15;;;;;;;7.80;5.60;;;;;;;19.63;88.51;100175.63;110778;1218;138482;-64
2023/10/13 13:42:42;;;;;;;13.30;6.40;;;;;;;19.63;88.34;100174.65;110941;1221;98817;-65
2023/10/13 13:45:21;;;;;;;15.10;5.40;;;;;;;19.63;88.22;100167.93;110790;1211;138816;-65
2023/10/13 13:47:53;;;;;;;6.80;5.50;;;;;;;19.62;87.94;100158.24;110917;1220;102856;-65
2023/10/13 13:50:23;;;;;;;7.50;5.20;;;;;;;19.59;87.82;100156.14;110851;1210;139208;-65
2023/10/13 13:52:49;;;;;;;9.10;5.50;;;;;;;19.56;87.70;100149.17;110937;1206;99473;-66
2023/10/13 13:55:17;;;;;;;7.90;5.90;;;;;;;19.55;87.70;100141.89;110922;1212;97623;-66
2023/10/13 13:57:46;;;;;;;9.50;5.60;;;;;;;19.53;87.59;100139.14;110915;1210;140051;-66
2023/10/13 14:00:17;;;;;;;12.60;5.50;;;;;;;19.51;87.24;100140.89;110923;1211;103025;-66
2023/10/13 14:02:47;;;;;;;;;;;;;;;19.50;87.09;100142.10;111003;1206;139186;-66
2023/10/13 14:05:15;;;;;;;9.30;5.60;;;;;;;19.47;87.05;100140.02;110856;1206;99366;-66
2023/10/13 14:07:50;;;;;;;6.90;5.00;;;;;;;19.44;86.88;100137.18;110899;1219;97565;-66
2023/10/13 14:10:31;;;;;;;13.60;5.80;;;;;;;19.43;86.65;100140.55;110813;1212;139088;-66
2023/10/13 14:13:06;;;;;;;14.20;5.70;;;;;;;19.39;86.81;100135.23;110869;1212;103103;-66
2023/10/13 14:15:39;;;;;;;11.00;6.20;;;;;;;19.39;86.77;100129.86;110839;1207;139784;-66
2023/10/13 14:18:06;;;;;;;9.80;5.50;;;;;;;19.36;86.76;100130.81;110858;1210;99350;-66
2023/10/13 14:20:37;;;;;;;8.00;5.20;;;;;;;19.34;86.71;100119.58;110821;1206;138905;-66
2023/10/13 14:23:07;;;;;;;18.00;5.90;;;;;;;19.32;86.78;100112.14;110920;1206;98953;-66
2023/10/13 14:25:37;;;;;;;9.10;5.40;;;;;;;19.29;86.83;100108.06;110981;1210;103578;-66